sensor_id;sensor_type;location;lat;lon;timestamp;pressure;altitude;pressure_sealevel;temperature;humidity
64086;BME280;50333;47.436;21.390;2022-07-06T00:00:16;100316.03;;;22.79;63.10
64086;BME280;50333;47.436;21.390;2022-07-06T00:02:44;100313.53;;;22.70;63.53
64086;BME280;50333;47.436;21.390;2022-07-06T00:05:12;100313.47;;;22.67;63.86
64086;BME280;50333;47.436;21.390;2022-07-06T00:07:40;100312.81;;;23.21;62.21
64086;BME280;50333;47.436;21.390;2022-07-06T00:10:08;100315.28;;;23.49;61.02
64086;BME280;50333;47.436;21.390;2022-07-06T00:12:39;100312.13;;;23.44;61.36
64086;BME280;50333;47.436;21.390;2022-07-06T00:15:08;100316.88;;;23.15;62.16
64086;BME280;50333;47.436;21.390;2022-07-06T00:17:36;100316.53;;;23.17;62.23
64086;BME280;50333;47.436;21.390;2022-07-06T00:20:04;100316.19;;;22.86;63.03
64086;BME280;50333;47.436;21.390;2022-07-06T00:22:32;100317.53;;;23.12;62.50
64086;BME280;50333;47.436;21.390;2022-07-06T00:25:00;100318.94;;;23.41;61.65
64086;BME280;50333;47.436;21.390;2022-07-06T00:27:27;100329.72;;;23.68;60.44
64086;BME280;50333;47.436;21.390;2022-07-06T00:29:55;100327.63;;;23.58;61.01
64086;BME280;50333;47.436;21.390;2022-07-06T00:32:23;100321.53;;;23.38;61.86
64086;BME280;50333;47.436;21.390;2022-07-06T00:34:52;100330.53;;;23.88;59.89
64086;BME280;50333;47.436;21.390;2022-07-06T00:37:22;100329.50;;;23.57;60.79
64086;BME280;50333;47.436;21.390;2022-07-06T00:39:50;100325.31;;;24.15;58.99
64086;BME280;50333;47.436;21.390;2022-07-06T00:42:18;100328.47;;;24.01;59.55
64086;BME280;50333;47.436;21.390;2022-07-06T00:44:46;100324.19;;;23.77;60.40
64086;BME280;50333;47.436;21.390;2022-07-06T00:47:13;100325.13;;;23.84;60.07
64086;BME280;50333;47.436;21.390;2022-07-06T00:49:41;100320.12;;;23.63;60.75
64086;BME280;50333;47.436;21.390;2022-07-06T00:52:28;100321.03;;;23.71;60.77
64086;BME280;50333;47.436;21.390;2022-07-06T00:54:56;100334.56;;;23.62;61.04
64086;BME280;50333;47.436;21.390;2022-07-06T00:57:23;100332.88;;;23.54;61.27
64086;BME280;50333;47.436;21.390;2022-07-06T00:59:51;100333.34;;;23.40;61.60
64086;BME280;50333;47.436;21.390;2022-07-06T01:02:19;100329.03;;;23.71;60.28
64086;BME280;50333;47.436;21.390;2022-07-06T01:04:48;100326.56;;;23.62;60.77
64086;BME280;50333;47.436;21.390;2022-07-06T01:07:16;100327.47;;;23.31;61.86
64086;BME280;50333;47.436;21.390;2022-07-06T01:09:44;100327.88;;;23.72;60.52
64086;BME280;50333;47.436;21.390;2022-07-06T01:12:12;100329.56;;;23.41;61.32
64086;BME280;50333;47.436;21.390;2022-07-06T01:14:40;100318.25;;;23.83;60.17
64086;BME280;50333;47.436;21.390;2022-07-06T01:17:08;100316.41;;;24.07;59.13
64086;BME280;50333;47.436;21.390;2022-07-06T01:19:36;100315.59;;;23.64;60.45
64086;BME280;50333;47.436;21.390;2022-07-06T01:22:05;100325.41;;;23.99;59.36
64086;BME280;50333;47.436;21.390;2022-07-06T01:24:35;100316.53;;;23.75;60.10
64086;BME280;50333;47.436;21.390;2022-07-06T01:27:07;100310.16;;;23.41;61.24
64086;BME280;50333;47.436;21.390;2022-07-06T01:29:35;100310.75;;;23.50;60.92
64086;BME280;50333;47.436;21.390;2022-07-06T01:32:03;100310.59;;;23.43;61.08
64086;BME280;50333;47.436;21.390;2022-07-06T01:34:31;100317.19;;;23.68;60.41
64086;BME280;50333;47.436;21.390;2022-07-06T01:37:00;100310.81;;;23.73;60.20
64086;BME280;50333;47.436;21.390;2022-07-06T01:39:27;100309.41;;;23.60;60.56
64086;BME280;50333;47.436;21.390;2022-07-06T01:41:55;100319.69;;;23.42;61.05
64086;BME280;50333;47.436;21.390;2022-07-06T01:44:23;100307.53;;;23.60;60.48
64086;BME280;50333;47.436;21.390;2022-07-06T01:46:50;100316.94;;;23.19;61.92
64086;BME280;50333;47.436;21.390;2022-07-06T01:49:18;100312.13;;;23.63;60.51
64086;BME280;50333;47.436;21.390;2022-07-06T01:51:46;100310.06;;;23.53;60.66
64086;BME280;50333;47.436;21.390;2022-07-06T01:54:14;100307.09;;;23.58;60.47
64086;BME280;50333;47.436;21.390;2022-07-06T01:56:42;100308.78;;;23.66;60.28
64086;BME280;50333;47.436;21.390;2022-07-06T01:59:10;100305.13;;;23.36;61.22
64086;BME280;50333;47.436;21.390;2022-07-06T02:01:38;100307.41;;;23.53;60.67
64086;BME280;50333;47.436;21.390;2022-07-06T02:04:06;100304.28;;;23.51;60.79
64086;BME280;50333;47.436;21.390;2022-07-06T02:06:34;100318.50;;;23.39;61.09
64086;BME280;50333;47.436;21.390;2022-07-06T02:09:02;100321.38;;;23.14;62.12
64086;BME280;50333;47.436;21.390;2022-07-06T02:11:32;100323.25;;;23.30;61.64
64086;BME280;50333;47.436;21.390;2022-07-06T02:13:59;100321.94;;;23.40;61.27
64086;BME280;50333;47.436;21.390;2022-07-06T02:16:27;100325.22;;;23.33;61.25
64086;BME280;50333;47.436;21.390;2022-07-06T02:18:58;100330.88;;;23.31;61.42
64086;BME280;50333;47.436;21.390;2022-07-06T02:21:27;100334.94;;;23.09;62.21
64086;BME280;50333;47.436;21.390;2022-07-06T02:23:55;100336.47;;;23.26;61.60
64086;BME280;50333;47.436;21.390;2022-07-06T02:26:23;100334.50;;;23.23;61.72
64086;BME280;50333;47.436;21.390;2022-07-06T02:28:51;100337.28;;;23.46;61.01
64086;BME280;50333;47.436;21.390;2022-07-06T02:31:20;100345.19;;;23.62;60.39
64086;BME280;50333;47.436;21.390;2022-07-06T02:33:48;100339.03;;;23.58;60.50
64086;BME280;50333;47.436;21.390;2022-07-06T02:36:16;100338.47;;;23.49;60.82
64086;BME280;50333;47.436;21.390;2022-07-06T02:38:44;100344.91;;;23.48;60.87
64086;BME280;50333;47.436;21.390;2022-07-06T02:41:12;100339.53;;;23.64;60.44
64086;BME280;50333;47.436;21.390;2022-07-06T02:43:40;100342.81;;;23.38;61.41
64086;BME280;50333;47.436;21.390;2022-07-06T02:46:08;100332.09;;;23.02;62.50
64086;BME280;50333;47.436;21.390;2022-07-06T02:48:36;100336.28;;;23.35;61.50
64086;BME280;50333;47.436;21.390;2022-07-06T02:51:05;100328.09;;;23.44;61.23
64086;BME280;50333;47.436;21.390;2022-07-06T02:53:34;100336.38;;;23.23;61.77
64086;BME280;50333;47.436;21.390;2022-07-06T02:56:01;100349.28;;;23.05;62.42
64086;BME280;50333;47.436;21.390;2022-07-06T02:58:30;100341.97;;;23.18;62.07
64086;BME280;50333;47.436;21.390;2022-07-06T03:00:58;100339.88;;;23.27;61.81
64086;BME280;50333;47.436;21.390;2022-07-06T03:03:25;100345.87;;;23.40;61.42
64086;BME280;50333;47.436;21.390;2022-07-06T03:05:54;100345.28;;;23.85;59.93
64086;BME280;50333;47.436;21.390;2022-07-06T03:08:22;100347.44;;;23.60;60.67
64086;BME280;50333;47.436;21.390;2022-07-06T03:10:50;100344.12;;;23.83;59.97
64086;BME280;50333;47.436;21.390;2022-07-06T03:13:18;100352.09;;;23.83;60.10
64086;BME280;50333;47.436;21.390;2022-07-06T03:15:47;100357.41;;;24.02;59.27
64086;BME280;50333;47.436;21.390;2022-07-06T03:18:14;100352.16;;;23.31;61.72
64086;BME280;50333;47.436;21.390;2022-07-06T03:20:43;100350.31;;;23.51;61.24
64086;BME280;50333;47.436;21.390;2022-07-06T03:23:12;100358.78;;;23.77;60.29
64086;BME280;50333;47.436;21.390;2022-07-06T03:25:39;100361.06;;;23.94;59.56
64086;BME280;50333;47.436;21.390;2022-07-06T03:28:08;100355.28;;;23.53;60.91
64086;BME280;50333;47.436;21.390;2022-07-06T03:30:36;100357.84;;;23.49;61.41
64086;BME280;50333;47.436;21.390;2022-07-06T03:33:03;100350.81;;;23.77;60.41
64086;BME280;50333;47.436;21.390;2022-07-06T03:35:31;100350.59;;;24.05;59.39
64086;BME280;50333;47.436;21.390;2022-07-06T03:38:01;100352.47;;;24.24;58.75
64086;BME280;50333;47.436;21.390;2022-07-06T03:40:30;100348.28;;;24.03;59.42
64086;BME280;50333;47.436;21.390;2022-07-06T03:42:58;100355.75;;;24.37;58.44
64086;BME280;50333;47.436;21.390;2022-07-06T03:45:26;100353.50;;;24.39;58.22
64086;BME280;50333;47.436;21.390;2022-07-06T03:47:55;100352.41;;;24.20;58.97
64086;BME280;50333;47.436;21.390;2022-07-06T03:50:24;100346.78;;;24.25;58.82
64086;BME280;50333;47.436;21.390;2022-07-06T03:52:52;100361.75;;;23.91;59.84
64086;BME280;50333;47.436;21.390;2022-07-06T03:55:20;100362.25;;;24.16;59.26
64086;BME280;50333;47.436;21.390;2022-07-06T03:57:48;100362.84;;;24.29;58.76
64086;BME280;50333;47.436;21.390;2022-07-06T04:00:16;100368.31;;;24.17;59.11
64086;BME280;50333;47.436;21.390;2022-07-06T04:02:45;100372.91;;;24.16;59.21
64086;BME280;50333;47.436;21.390;2022-07-06T04:05:13;100377.31;;;24.08;59.43
64086;BME280;50333;47.436;21.390;2022-07-06T04:07:42;100375.03;;;24.30;58.59
64086;BME280;50333;47.436;21.390;2022-07-06T04:10:11;100378.69;;;24.22;58.87
64086;BME280;50333;47.436;21.390;2022-07-06T04:12:42;100379.97;;;24.28;58.78
64086;BME280;50333;47.436;21.390;2022-07-06T04:15:11;100385.44;;;23.96;59.86
64086;BME280;50333;47.436;21.390;2022-07-06T04:17:40;100373.34;;;23.63;61.07
64086;BME280;50333;47.436;21.390;2022-07-06T04:20:22;100380.16;;;23.25;62.19
64086;BME280;50333;47.436;21.390;2022-07-06T04:22:51;100372.09;;;23.77;60.71
64086;BME280;50333;47.436;21.390;2022-07-06T04:25:20;100377.75;;;23.56;61.25
64086;BME280;50333;47.436;21.390;2022-07-06T04:27:48;100378.06;;;23.34;62.16
64086;BME280;50333;47.436;21.390;2022-07-06T04:30:16;100371.75;;;22.91;63.34
64086;BME280;50333;47.436;21.390;2022-07-06T04:32:44;100381.44;;;23.51;61.67
64086;BME280;50333;47.436;21.390;2022-07-06T04:35:13;100376.53;;;23.69;60.92
64086;BME280;50333;47.436;21.390;2022-07-06T04:37:41;100382.56;;;23.30;62.27
64086;BME280;50333;47.436;21.390;2022-07-06T04:40:09;100384.94;;;23.04;63.02
64086;BME280;50333;47.436;21.390;2022-07-06T04:42:45;100383.91;;;23.60;61.22
64086;BME280;50333;47.436;21.390;2022-07-06T04:45:13;100387.78;;;23.62;61.20
64086;BME280;50333;47.436;21.390;2022-07-06T04:47:41;100391.50;;;23.77;60.51
64086;BME280;50333;47.436;21.390;2022-07-06T04:50:12;100389.37;;;23.47;61.77
64086;BME280;50333;47.436;21.390;2022-07-06T04:52:39;100397.22;;;23.60;61.06
64086;BME280;50333;47.436;21.390;2022-07-06T04:55:07;100402.94;;;23.78;60.76
64086;BME280;50333;47.436;21.390;2022-07-06T04:57:36;100399.81;;;23.21;62.49
64086;BME280;50333;47.436;21.390;2022-07-06T05:00:05;100398.16;;;23.67;61.01
64086;BME280;50333;47.436;21.390;2022-07-06T05:02:34;100407.88;;;23.60;61.35
64086;BME280;50333;47.436;21.390;2022-07-06T05:05:02;100398.66;;;23.73;60.80
64086;BME280;50333;47.436;21.390;2022-07-06T05:07:35;100408.25;;;23.78;60.72
64086;BME280;50333;47.436;21.390;2022-07-06T05:10:08;100413.25;;;23.63;60.93
64086;BME280;50333;47.436;21.390;2022-07-06T05:12:37;100418.03;;;23.54;61.62
64086;BME280;50333;47.436;21.390;2022-07-06T05:15:06;100416.94;;;23.75;61.05
64086;BME280;50333;47.436;21.390;2022-07-06T05:17:35;100421.47;;;23.39;61.85
64086;BME280;50333;47.436;21.390;2022-07-06T05:20:05;100428.50;;;23.47;61.73
64086;BME280;50333;47.436;21.390;2022-07-06T05:22:33;100428.62;;;23.34;62.17
64086;BME280;50333;47.436;21.390;2022-07-06T05:25:01;100425.09;;;23.46;61.60
64086;BME280;50333;47.436;21.390;2022-07-06T05:27:29;100431.78;;;23.40;62.14
64086;BME280;50333;47.436;21.390;2022-07-06T05:29:57;100428.75;;;23.77;60.82
64086;BME280;50333;47.436;21.390;2022-07-06T05:32:25;100429.56;;;23.78;60.67
64086;BME280;50333;47.436;21.390;2022-07-06T05:34:53;100432.47;;;23.88;60.34
64086;BME280;50333;47.436;21.390;2022-07-06T05:37:21;100433.50;;;24.03;59.72
64086;BME280;50333;47.436;21.390;2022-07-06T05:39:49;100436.34;;;24.11;59.55
64086;BME280;50333;47.436;21.390;2022-07-06T05:42:18;100430.13;;;24.26;59.02
64086;BME280;50333;47.436;21.390;2022-07-06T05:44:46;100437.50;;;24.13;59.55
64086;BME280;50333;47.436;21.390;2022-07-06T05:47:14;100434.19;;;23.81;60.57
64086;BME280;50333;47.436;21.390;2022-07-06T05:50:00;100427.91;;;24.08;59.88
64086;BME280;50333;47.436;21.390;2022-07-06T05:52:41;100426.72;;;24.25;59.38
64086;BME280;50333;47.436;21.390;2022-07-06T05:55:11;100433.31;;;24.32;59.14
64086;BME280;50333;47.436;21.390;2022-07-06T05:57:40;100438.50;;;24.24;59.45
64086;BME280;50333;47.436;21.390;2022-07-06T06:00:08;100439.50;;;23.97;60.48
64086;BME280;50333;47.436;21.390;2022-07-06T06:02:42;100445.03;;;24.07;60.31
64086;BME280;50333;47.436;21.390;2022-07-06T06:05:13;100449.72;;;24.14;60.26
64086;BME280;50333;47.436;21.390;2022-07-06T06:07:41;100448.66;;;24.58;58.54
64086;BME280;50333;47.436;21.390;2022-07-06T06:10:12;100449.16;;;24.24;59.56
64086;BME280;50333;47.436;21.390;2022-07-06T06:12:40;100443.31;;;23.99;60.37
64086;BME280;50333;47.436;21.390;2022-07-06T06:15:10;100448.66;;;24.58;58.40
64086;BME280;50333;47.436;21.390;2022-07-06T06:17:38;100444.09;;;24.39;58.92
64086;BME280;50333;47.436;21.390;2022-07-06T06:20:08;100449.06;;;24.21;59.61
64086;BME280;50333;47.436;21.390;2022-07-06T06:22:50;100445.66;;;24.01;60.39
64086;BME280;50333;47.436;21.390;2022-07-06T06:25:21;100449.00;;;24.17;59.72
64086;BME280;50333;47.436;21.390;2022-07-06T06:27:54;100446.06;;;24.22;59.80
64086;BME280;50333;47.436;21.390;2022-07-06T06:30:22;100456.22;;;24.36;59.11
64086;BME280;50333;47.436;21.390;2022-07-06T06:32:50;100446.00;;;24.19;59.87
64086;BME280;50333;47.436;21.390;2022-07-06T06:35:18;100452.72;;;24.32;59.71
64086;BME280;50333;47.436;21.390;2022-07-06T06:37:46;100458.19;;;24.39;60.06
64086;BME280;50333;47.436;21.390;2022-07-06T06:40:13;100453.22;;;24.18;61.78
64086;BME280;50333;47.436;21.390;2022-07-06T06:42:41;100456.69;;;23.83;63.08
64086;BME280;50333;47.436;21.390;2022-07-06T06:45:10;100458.09;;;23.61;64.40
64086;BME280;50333;47.436;21.390;2022-07-06T06:47:37;100462.59;;;23.77;64.05
64086;BME280;50333;47.436;21.390;2022-07-06T06:50:05;100463.81;;;23.79;64.05
64086;BME280;50333;47.436;21.390;2022-07-06T06:52:33;100463.87;;;23.31;65.95
64086;BME280;50333;47.436;21.390;2022-07-06T06:55:07;100469.25;;;23.67;64.95
64086;BME280;50333;47.436;21.390;2022-07-06T06:57:36;100472.25;;;23.65;65.27
64086;BME280;50333;47.436;21.390;2022-07-06T07:00:04;100478.75;;;23.84;64.53
64086;BME280;50333;47.436;21.390;2022-07-06T07:02:33;100483.19;;;23.44;65.85
64086;BME280;50333;47.436;21.390;2022-07-06T07:05:02;100475.41;;;23.36;65.84
64086;BME280;50333;47.436;21.390;2022-07-06T07:07:31;100478.81;;;23.52;65.63
64086;BME280;50333;47.436;21.390;2022-07-06T07:09:59;100479.69;;;23.24;66.34
64086;BME280;50333;47.436;21.390;2022-07-06T07:12:27;100481.97;;;23.58;65.02
64086;BME280;50333;47.436;21.390;2022-07-06T07:14:55;100473.59;;;23.91;64.02
64086;BME280;50333;47.436;21.390;2022-07-06T07:17:22;100476.12;;;23.52;65.78
64086;BME280;50333;47.436;21.390;2022-07-06T07:19:50;100480.47;;;23.76;65.15
64086;BME280;50333;47.436;21.390;2022-07-06T07:22:18;100481.34;;;23.64;65.88
64086;BME280;50333;47.436;21.390;2022-07-06T07:24:46;100484.19;;;23.56;65.91
64086;BME280;50333;47.436;21.390;2022-07-06T07:27:15;100485.03;;;23.60;65.55
64086;BME280;50333;47.436;21.390;2022-07-06T07:29:42;100490.56;;;24.02;63.63
64086;BME280;50333;47.436;21.390;2022-07-06T07:32:10;100494.34;;;24.01;63.50
64086;BME280;50333;47.436;21.390;2022-07-06T07:34:38;100490.31;;;24.07;62.05
64086;BME280;50333;47.436;21.390;2022-07-06T07:37:06;100488.09;;;23.94;61.08
64086;BME280;50333;47.436;21.390;2022-07-06T07:39:34;100489.41;;;23.84;60.98
64086;BME280;50333;47.436;21.390;2022-07-06T07:42:02;100483.97;;;23.45;62.27
64086;BME280;50333;47.436;21.390;2022-07-06T07:44:30;100488.88;;;23.94;60.35
64086;BME280;50333;47.436;21.390;2022-07-06T07:46:57;100487.25;;;23.73;61.10
64086;BME280;50333;47.436;21.390;2022-07-06T07:49:25;100489.72;;;23.47;62.39
64086;BME280;50333;47.436;21.390;2022-07-06T07:51:53;100494.06;;;23.87;60.99
64086;BME280;50333;47.436;21.390;2022-07-06T07:54:21;100496.94;;;23.30;62.20
64086;BME280;50333;47.436;21.390;2022-07-06T07:56:49;100492.25;;;23.59;61.56
64086;BME280;50333;47.436;21.390;2022-07-06T07:59:17;100493.44;;;24.13;60.09
64086;BME280;50333;47.436;21.390;2022-07-06T08:01:46;100489.28;;;23.96;60.38
64086;BME280;50333;47.436;21.390;2022-07-06T08:04:14;100499.53;;;23.94;60.54
64086;BME280;50333;47.436;21.390;2022-07-06T08:06:42;100503.47;;;24.00;60.35
64086;BME280;50333;47.436;21.390;2022-07-06T08:09:10;100502.94;;;23.95;60.68
64086;BME280;50333;47.436;21.390;2022-07-06T08:11:38;100500.59;;;24.09;59.84
64086;BME280;50333;47.436;21.390;2022-07-06T08:14:05;100507.44;;;23.90;60.27
64086;BME280;50333;47.436;21.390;2022-07-06T08:16:33;100515.25;;;24.19;59.48
64086;BME280;50333;47.436;21.390;2022-07-06T08:19:01;100516.13;;;24.23;59.01
64086;BME280;50333;47.436;21.390;2022-07-06T08:21:37;100522.81;;;24.17;59.26
64086;BME280;50333;47.436;21.390;2022-07-06T08:24:05;100524.91;;;24.07;59.58
64086;BME280;50333;47.436;21.390;2022-07-06T08:26:33;100532.94;;;24.27;57.43
64086;BME280;50333;47.436;21.390;2022-07-06T08:29:01;100534.31;;;24.21;57.80
64086;BME280;50333;47.436;21.390;2022-07-06T08:31:29;100532.31;;;23.98;57.99
64086;BME280;50333;47.436;21.390;2022-07-06T08:34:17;100533.81;;;23.64;59.21
64086;BME280;50333;47.436;21.390;2022-07-06T08:36:45;100539.88;;;23.96;59.12
64086;BME280;50333;47.436;21.390;2022-07-06T08:39:13;100551.03;;;24.37;57.98
64086;BME280;50333;47.436;21.390;2022-07-06T08:41:41;100550.75;;;24.23;58.66
64086;BME280;50333;47.436;21.390;2022-07-06T08:44:10;100561.28;;;24.35;57.81
64086;BME280;50333;47.436;21.390;2022-07-06T08:46:38;100555.09;;;23.96;58.01
64086;BME280;50333;47.436;21.390;2022-07-06T08:49:07;100553.31;;;23.84;58.32
64086;BME280;50333;47.436;21.390;2022-07-06T08:51:37;100555.63;;;23.38;59.07
64086;BME280;50333;47.436;21.390;2022-07-06T08:54:07;100555.63;;;23.22;59.30
64086;BME280;50333;47.436;21.390;2022-07-06T08:56:35;100557.34;;;23.78;57.57
64086;BME280;50333;47.436;21.390;2022-07-06T08:59:03;100546.94;;;23.41;58.06
64086;BME280;50333;47.436;21.390;2022-07-06T09:01:32;100551.50;;;23.40;57.75
64086;BME280;50333;47.436;21.390;2022-07-06T09:04:00;100556.47;;;23.10;58.42
64086;BME280;50333;47.436;21.390;2022-07-06T09:06:30;100549.97;;;23.39;57.62
64086;BME280;50333;47.436;21.390;2022-07-06T09:08:58;100554.00;;;23.81;56.54
64086;BME280;50333;47.436;21.390;2022-07-06T09:11:27;100557.50;;;23.21;58.44
64086;BME280;50333;47.436;21.390;2022-07-06T09:13:55;100559.75;;;23.51;57.58
64086;BME280;50333;47.436;21.390;2022-07-06T09:16:28;100562.47;;;23.54;57.69
64086;BME280;50333;47.436;21.390;2022-07-06T09:19:07;100561.28;;;23.68;57.70
64086;BME280;50333;47.436;21.390;2022-07-06T09:21:35;100564.84;;;23.88;57.08
64086;BME280;50333;47.436;21.390;2022-07-06T09:24:09;100568.75;;;23.94;57.07
64086;BME280;50333;47.436;21.390;2022-07-06T09:26:37;100561.03;;;23.89;57.51
64086;BME280;50333;47.436;21.390;2022-07-06T09:29:05;100567.78;;;24.38;56.10
64086;BME280;50333;47.436;21.390;2022-07-06T09:31:34;100565.31;;;24.29;56.35
64086;BME280;50333;47.436;21.390;2022-07-06T09:34:04;100566.78;;;24.62;55.28
64086;BME280;50333;47.436;21.390;2022-07-06T09:36:45;100568.44;;;24.51;55.40
64086;BME280;50333;47.436;21.390;2022-07-06T09:41:49;100565.59;;;24.59;54.40
64086;BME280;50333;47.436;21.390;2022-07-06T09:44:20;100572.78;;;24.98;53.46
64086;BME280;50333;47.436;21.390;2022-07-06T09:46:48;100567.31;;;24.71;53.83
64086;BME280;50333;47.436;21.390;2022-07-06T09:49:18;100566.19;;;24.92;52.88
64086;BME280;50333;47.436;21.390;2022-07-06T09:51:48;100573.16;;;25.19;51.92
64086;BME280;50333;47.436;21.390;2022-07-06T09:54:16;100567.81;;;25.19;51.79
64086;BME280;50333;47.436;21.390;2022-07-06T09:56:46;100575.03;;;25.38;51.46
64086;BME280;50333;47.436;21.390;2022-07-06T09:59:25;100576.81;;;25.54;50.74
64086;BME280;50333;47.436;21.390;2022-07-06T10:01:55;100585.09;;;25.72;50.17
64086;BME280;50333;47.436;21.390;2022-07-06T10:04:25;100582.31;;;25.91;49.46
64086;BME280;50333;47.436;21.390;2022-07-06T10:06:54;100582.63;;;25.59;50.33
64086;BME280;50333;47.436;21.390;2022-07-06T10:09:24;100583.75;;;25.58;50.01
64086;BME280;50333;47.436;21.390;2022-07-06T10:11:55;100583.75;;;25.58;49.61
64086;BME280;50333;47.436;21.390;2022-07-06T10:14:31;100583.69;;;25.78;49.90
64086;BME280;50333;47.436;21.390;2022-07-06T10:17:01;100574.25;;;25.61;49.04
64086;BME280;50333;47.436;21.390;2022-07-06T10:19:30;100567.41;;;26.13;48.26
64086;BME280;50333;47.436;21.390;2022-07-06T10:22:01;100564.38;;;25.88;48.22
64086;BME280;50333;47.436;21.390;2022-07-06T10:24:30;100576.03;;;25.76;47.98
64086;BME280;50333;47.436;21.390;2022-07-06T10:27:02;100563.59;;;26.14;46.91
64086;BME280;50333;47.436;21.390;2022-07-06T10:29:31;100565.72;;;26.02;46.90
64086;BME280;50333;47.436;21.390;2022-07-06T10:32:00;100555.75;;;25.99;46.71
64086;BME280;50333;47.436;21.390;2022-07-06T10:34:28;100557.25;;;26.26;46.03
64086;BME280;50333;47.436;21.390;2022-07-06T10:36:56;100552.72;;;26.00;46.39
64086;BME280;50333;47.436;21.390;2022-07-06T10:39:35;100549.59;;;25.94;46.85
64086;BME280;50333;47.436;21.390;2022-07-06T10:42:49;100545.28;;;26.47;45.67
64086;BME280;50333;47.436;21.390;2022-07-06T10:45:49;100545.19;;;26.70;45.39
64086;BME280;50333;47.436;21.390;2022-07-06T10:53:26;100540.31;;;27.72;42.38
64086;BME280;50333;47.436;21.390;2022-07-06T10:55:55;100540.78;;;27.81;42.73
64086;BME280;50333;47.436;21.390;2022-07-06T10:58:52;100541.75;;;27.11;43.81
64086;BME280;50333;47.436;21.390;2022-07-06T11:01:21;100550.06;;;26.98;43.47
64086;BME280;50333;47.436;21.390;2022-07-06T11:03:49;100546.38;;;27.14;43.71
64086;BME280;50333;47.436;21.390;2022-07-06T11:06:20;100545.25;;;27.18;43.64
64086;BME280;50333;47.436;21.390;2022-07-06T11:08:59;100545.19;;;26.70;44.51
64086;BME280;50333;47.436;21.390;2022-07-06T11:13:59;100555.16;;;27.14;41.39
64086;BME280;50333;47.436;21.390;2022-07-06T11:16:33;100554.47;;;26.83;42.50
64086;BME280;50333;47.436;21.390;2022-07-06T11:19:15;100556.53;;;26.97;43.69
64086;BME280;50333;47.436;21.390;2022-07-06T11:21:45;100571.47;;;26.98;44.01
64086;BME280;50333;47.436;21.390;2022-07-06T11:24:29;100565.47;;;26.41;44.80
64086;BME280;50333;47.436;21.390;2022-07-06T11:26:58;100566.03;;;26.57;43.29
64086;BME280;50333;47.436;21.390;2022-07-06T11:29:28;100571.47;;;26.64;43.89
64086;BME280;50333;47.436;21.390;2022-07-06T11:31:58;100559.63;;;26.62;43.81
64086;BME280;50333;47.436;21.390;2022-07-06T11:34:31;100566.44;;;26.93;41.91
64086;BME280;50333;47.436;21.390;2022-07-06T11:37:05;100565.72;;;26.96;41.54
64086;BME280;50333;47.436;21.390;2022-07-06T11:39:42;100560.16;;;27.16;41.78
64086;BME280;50333;47.436;21.390;2022-07-06T11:42:12;100571.31;;;27.70;40.01
64086;BME280;50333;47.436;21.390;2022-07-06T11:44:41;100555.41;;;27.95;38.55
64086;BME280;50333;47.436;21.390;2022-07-06T11:47:11;100554.78;;;28.27;38.47
64086;BME280;50333;47.436;21.390;2022-07-06T11:49:40;100554.75;;;28.19;38.01
64086;BME280;50333;47.436;21.390;2022-07-06T11:52:10;100544.81;;;28.16;38.82
64086;BME280;50333;47.436;21.390;2022-07-06T11:54:41;100541.00;;;28.28;38.56
64086;BME280;50333;47.436;21.390;2022-07-06T11:57:12;100534.16;;;28.38;38.40
64086;BME280;50333;47.436;21.390;2022-07-06T11:59:41;100540.41;;;28.64;38.46
64086;BME280;50333;47.436;21.390;2022-07-06T12:02:15;100549.13;;;28.43;37.75
64086;BME280;50333;47.436;21.390;2022-07-06T12:04:44;100532.53;;;28.15;37.60
64086;BME280;50333;47.436;21.390;2022-07-06T12:07:14;100548.81;;;28.55;36.68
64086;BME280;50333;47.436;21.390;2022-07-06T12:09:45;100539.25;;;28.72;36.31
64086;BME280;50333;47.436;21.390;2022-07-06T12:12:13;100536.97;;;28.74;36.13
64086;BME280;50333;47.436;21.390;2022-07-06T12:14:41;100539.66;;;28.81;36.83
64086;BME280;50333;47.436;21.390;2022-07-06T12:17:11;100541.56;;;28.81;36.38
64086;BME280;50333;47.436;21.390;2022-07-06T12:19:40;100534.31;;;28.95;36.46
64086;BME280;50333;47.436;21.390;2022-07-06T12:22:09;100533.09;;;28.61;36.50
64086;BME280;50333;47.436;21.390;2022-07-06T12:24:42;100535.81;;;28.71;36.13
64086;BME280;50333;47.436;21.390;2022-07-06T12:27:15;100534.12;;;28.27;36.79
64086;BME280;50333;47.436;21.390;2022-07-06T12:29:44;100532.75;;;28.87;35.87
64086;BME280;50333;47.436;21.390;2022-07-06T12:32:19;100527.81;;;28.96;35.03
64086;BME280;50333;47.436;21.390;2022-07-06T12:35:04;100530.44;;;28.82;36.01
64086;BME280;50333;47.436;21.390;2022-07-06T12:37:32;100533.94;;;29.11;35.10
64086;BME280;50333;47.436;21.390;2022-07-06T12:40:01;100528.19;;;28.88;35.01
64086;BME280;50333;47.436;21.390;2022-07-06T12:42:29;100522.41;;;29.47;33.77
64086;BME280;50333;47.436;21.390;2022-07-06T12:44:57;100528.19;;;29.31;33.85
64086;BME280;50333;47.436;21.390;2022-07-06T12:47:25;100532.75;;;29.70;33.37
64086;BME280;50333;47.436;21.390;2022-07-06T12:50:09;100531.25;;;29.51;32.86
64086;BME280;50333;47.436;21.390;2022-07-06T12:52:38;100535.13;;;29.28;33.43
64086;BME280;50333;47.436;21.390;2022-07-06T12:55:07;100536.63;;;29.08;34.32
64086;BME280;50333;47.436;21.390;2022-07-06T12:57:46;100535.09;;;29.43;34.05
64086;BME280;50333;47.436;21.390;2022-07-06T13:00:15;100544.28;;;28.91;34.47
64086;BME280;50333;47.436;21.390;2022-07-06T13:02:44;100537.38;;;28.87;33.64